sensor_id;sensor_type;location;lat;lon;timestamp;P1;durP1;ratioP1;P2;durP2;ratioP2
53040;SDS011;39326;42.650;23.248;2023-04-24T00:00:12;9.03;;;6.73;;
53040;SDS011;39326;42.650;23.248;2023-04-24T00:02:40;7.90;;;7.20;;
53040;SDS011;39326;42.650;23.248;2023-04-24T00:05:06;7.00;;;6.40;;
53040;SDS011;39326;42.650;23.248;2023-04-24T00:07:33;7.37;;;6.70;;
53040;SDS011;39326;42.650;23.248;2023-04-24T00:09:59;7.07;;;6.40;;
53040;SDS011;39326;42.650;23.248;2023-04-24T00:12:25;9.63;;;6.97;;
53040;SDS011;39326;42.650;23.248;2023-04-24T00:14:51;8.07;;;7.27;;
53040;SDS011;39326;42.650;23.248;2023-04-24T00:17:17;8.30;;;6.63;;
53040;SDS011;39326;42.650;23.248;2023-04-24T00:19:46;8.10;;;7.20;;
53040;SDS011;39326;42.650;23.248;2023-04-24T00:22:12;7.37;;;6.77;;
53040;SDS011;39326;42.650;23.248;2023-04-24T00:24:40;6.77;;;6.17;;
53040;SDS011;39326;42.650;23.248;2023-04-24T00:27:06;6.93;;;6.33;;
53040;SDS011;39326;42.650;23.248;2023-04-24T00:29:31;7.80;;;6.70;;
53040;SDS011;39326;42.650;23.248;2023-04-24T00:31:56;6.37;;;5.80;;
53040;SDS011;39326;42.650;23.248;2023-04-24T00:34:22;6.93;;;6.33;;
53040;SDS011;39326;42.650;23.248;2023-04-24T00:36:48;6.40;;;5.90;;
53040;SDS011;39326;42.650;23.248;2023-04-24T00:39:17;7.07;;;6.47;;
53040;SDS011;39326;42.650;23.248;2023-04-24T00:41:46;6.80;;;6.30;;
53040;SDS011;39326;42.650;23.248;2023-04-24T00:44:13;7.17;;;6.37;;
53040;SDS011;39326;42.650;23.248;2023-04-24T00:46:39;7.03;;;6.43;;
53040;SDS011;39326;42.650;23.248;2023-04-24T00:49:04;8.10;;;7.40;;
53040;SDS011;39326;42.650;23.248;2023-04-24T00:51:31;7.57;;;6.87;;
53040;SDS011;39326;42.650;23.248;2023-04-24T00:53:57;7.60;;;6.90;;
53040;SDS011;39326;42.650;23.248;2023-04-24T00:56:25;9.57;;;7.30;;
53040;SDS011;39326;42.650;23.248;2023-04-24T00:58:51;7.23;;;6.53;;
53040;SDS011;39326;42.650;23.248;2023-04-24T01:01:21;7.87;;;7.07;;
53040;SDS011;39326;42.650;23.248;2023-04-24T01:03:47;8.30;;;7.53;;
53040;SDS011;39326;42.650;23.248;2023-04-24T01:06:15;8.07;;;7.23;;
53040;SDS011;39326;42.650;23.248;2023-04-24T01:08:41;7.90;;;6.73;;
53040;SDS011;39326;42.650;23.248;2023-04-24T01:11:07;7.17;;;6.53;;
53040;SDS011;39326;42.650;23.248;2023-04-24T01:13:32;7.33;;;6.73;;
53040;SDS011;39326;42.650;23.248;2023-04-24T01:15:59;8.00;;;6.93;;
53040;SDS011;39326;42.650;23.248;2023-04-24T01:18:25;7.53;;;6.87;;
53040;SDS011;39326;42.650;23.248;2023-04-24T01:20:53;8.43;;;7.73;;
53040;SDS011;39326;42.650;23.248;2023-04-24T01:23:21;9.27;;;8.37;;
53040;SDS011;39326;42.650;23.248;2023-04-24T01:25:48;10.67;;;9.67;;
53040;SDS011;39326;42.650;23.248;2023-04-24T01:28:14;11.10;;;10.07;;
53040;SDS011;39326;42.650;23.248;2023-04-24T01:30:41;12.67;;;10.60;;
53040;SDS011;39326;42.650;23.248;2023-04-24T01:33:06;10.27;;;9.37;;
53040;SDS011;39326;42.650;23.248;2023-04-24T01:35:32;10.97;;;10.07;;
53040;SDS011;39326;42.650;23.248;2023-04-24T01:37:58;11.03;;;10.13;;
53040;SDS011;39326;42.650;23.248;2023-04-24T01:40:23;11.87;;;10.70;;
53040;SDS011;39326;42.650;23.248;2023-04-24T01:42:49;11.40;;;10.30;;
53040;SDS011;39326;42.650;23.248;2023-04-24T01:45:15;12.17;;;10.80;;
53040;SDS011;39326;42.650;23.248;2023-04-24T01:47:41;12.13;;;10.97;;
53040;SDS011;39326;42.650;23.248;2023-04-24T01:50:07;13.67;;;10.47;;
53040;SDS011;39326;42.650;23.248;2023-04-24T01:52:33;12.80;;;11.50;;
53040;SDS011;39326;42.650;23.248;2023-04-24T01:55:00;12.50;;;11.27;;
53040;SDS011;39326;42.650;23.248;2023-04-24T01:57:25;11.33;;;10.37;;
53040;SDS011;39326;42.650;23.248;2023-04-24T01:59:51;11.40;;;10.37;;
53040;SDS011;39326;42.650;23.248;2023-04-24T02:02:16;12.00;;;10.93;;
53040;SDS011;39326;42.650;23.248;2023-04-24T02:04:42;12.13;;;11.00;;
53040;SDS011;39326;42.650;23.248;2023-04-24T02:07:07;12.27;;;10.97;;
53040;SDS011;39326;42.650;23.248;2023-04-24T02:09:33;10.93;;;9.83;;
53040;SDS011;39326;42.650;23.248;2023-04-24T02:11:58;11.97;;;10.87;;
53040;SDS011;39326;42.650;23.248;2023-04-24T02:14:24;11.60;;;10.63;;
53040;SDS011;39326;42.650;23.248;2023-04-24T02:16:49;11.23;;;10.20;;
53040;SDS011;39326;42.650;23.248;2023-04-24T02:19:14;11.27;;;10.37;;
53040;SDS011;39326;42.650;23.248;2023-04-24T02:21:40;11.17;;;10.30;;
53040;SDS011;39326;42.650;23.248;2023-04-24T02:24:06;12.53;;;11.20;;
53040;SDS011;39326;42.650;23.248;2023-04-24T02:26:31;14.80;;;13.50;;
53040;SDS011;39326;42.650;23.248;2023-04-24T02:28:57;11.67;;;10.67;;
53040;SDS011;39326;42.650;23.248;2023-04-24T02:31:22;11.07;;;10.27;;
53040;SDS011;39326;42.650;23.248;2023-04-24T02:33:48;7.80;;;7.13;;
53040;SDS011;39326;42.650;23.248;2023-04-24T02:36:13;9.77;;;8.73;;
53040;SDS011;39326;42.650;23.248;2023-04-24T02:38:39;10.20;;;9.40;;
53040;SDS011;39326;42.650;23.248;2023-04-24T02:41:04;10.03;;;9.17;;
53040;SDS011;39326;42.650;23.248;2023-04-24T02:43:32;9.03;;;8.10;;
53040;SDS011;39326;42.650;23.248;2023-04-24T02:45:58;9.50;;;8.57;;
53040;SDS011;39326;42.650;23.248;2023-04-24T02:48:24;9.60;;;8.33;;
53040;SDS011;39326;42.650;23.248;2023-04-24T02:50:49;9.03;;;7.93;;
53040;SDS011;39326;42.650;23.248;2023-04-24T02:53:15;8.47;;;7.67;;
53040;SDS011;39326;42.650;23.248;2023-04-24T02:55:41;8.17;;;7.47;;
53040;SDS011;39326;42.650;23.248;2023-04-24T02:58:06;9.33;;;8.07;;
53040;SDS011;39326;42.650;23.248;2023-04-24T03:00:32;8.63;;;7.83;;
53040;SDS011;39326;42.650;23.248;2023-04-24T03:02:57;9.23;;;7.93;;
53040;SDS011;39326;42.650;23.248;2023-04-24T03:05:23;9.83;;;9.00;;
53040;SDS011;39326;42.650;23.248;2023-04-24T03:07:48;8.07;;;7.27;;
53040;SDS011;39326;42.650;23.248;2023-04-24T03:10:13;8.40;;;7.70;;
53040;SDS011;39326;42.650;23.248;2023-04-24T03:12:39;7.83;;;7.07;;
53040;SDS011;39326;42.650;23.248;2023-04-24T03:15:04;9.23;;;8.30;;
53040;SDS011;39326;42.650;23.248;2023-04-24T03:17:30;9.20;;;8.40;;
53040;SDS011;39326;42.650;23.248;2023-04-24T03:19:56;9.10;;;8.27;;
53040;SDS011;39326;42.650;23.248;2023-04-24T03:22:21;10.53;;;9.67;;
53040;SDS011;39326;42.650;23.248;2023-04-24T03:24:46;9.77;;;8.50;;
53040;SDS011;39326;42.650;23.248;2023-04-24T03:27:12;9.70;;;8.80;;
53040;SDS011;39326;42.650;23.248;2023-04-24T03:29:37;8.87;;;8.07;;
53040;SDS011;39326;42.650;23.248;2023-04-24T03:32:03;9.13;;;8.43;;
53040;SDS011;39326;42.650;23.248;2023-04-24T03:34:28;9.20;;;8.33;;
53040;SDS011;39326;42.650;23.248;2023-04-24T03:36:54;8.23;;;7.53;;
53040;SDS011;39326;42.650;23.248;2023-04-24T03:39:19;8.43;;;7.63;;
53040;SDS011;39326;42.650;23.248;2023-04-24T03:41:44;8.13;;;7.33;;
53040;SDS011;39326;42.650;23.248;2023-04-24T03:44:10;8.80;;;7.97;;
53040;SDS011;39326;42.650;23.248;2023-04-24T03:46:35;9.20;;;8.37;;
53040;SDS011;39326;42.650;23.248;2023-04-24T03:49:01;8.50;;;7.70;;
53040;SDS011;39326;42.650;23.248;2023-04-24T03:51:26;8.13;;;7.43;;
53040;SDS011;39326;42.650;23.248;2023-04-24T03:53:53;7.93;;;7.23;;
53040;SDS011;39326;42.650;23.248;2023-04-24T03:56:18;8.97;;;7.67;;
53040;SDS011;39326;42.650;23.248;2023-04-24T03:58:44;8.33;;;7.53;;
53040;SDS011;39326;42.650;23.248;2023-04-24T04:01:10;9.80;;;8.07;;
53040;SDS011;39326;42.650;23.248;2023-04-24T04:03:36;8.53;;;7.83;;
53040;SDS011;39326;42.650;23.248;2023-04-24T04:06:02;9.80;;;8.50;;
53040;SDS011;39326;42.650;23.248;2023-04-24T04:08:27;8.80;;;8.00;;
53040;SDS011;39326;42.650;23.248;2023-04-24T04:10:53;8.03;;;7.23;;
53040;SDS011;39326;42.650;23.248;2023-04-24T04:13:18;8.23;;;7.53;;
53040;SDS011;39326;42.650;23.248;2023-04-24T04:15:44;8.00;;;7.30;;
53040;SDS011;39326;42.650;23.248;2023-04-24T04:18:09;8.13;;;7.37;;
53040;SDS011;39326;42.650;23.248;2023-04-24T04:20:34;7.57;;;6.87;;
53040;SDS011;39326;42.650;23.248;2023-04-24T04:23:00;8.70;;;7.33;;
53040;SDS011;39326;42.650;23.248;2023-04-24T04:25:25;7.47;;;6.87;;
53040;SDS011;39326;42.650;23.248;2023-04-24T04:27:51;8.63;;;7.77;;
53040;SDS011;39326;42.650;23.248;2023-04-24T04:30:17;7.13;;;6.43;;
53040;SDS011;39326;42.650;23.248;2023-04-24T04:32:43;7.30;;;6.60;;
53040;SDS011;39326;42.650;23.248;2023-04-24T04:35:09;8.33;;;6.77;;
53040;SDS011;39326;42.650;23.248;2023-04-24T04:37:35;7.90;;;7.20;;
53040;SDS011;39326;42.650;23.248;2023-04-24T04:40:00;8.10;;;7.30;;
53040;SDS011;39326;42.650;23.248;2023-04-24T04:42:31;8.00;;;7.30;;
53040;SDS011;39326;42.650;23.248;2023-04-24T04:44:57;8.00;;;7.20;;
53040;SDS011;39326;42.650;23.248;2023-04-24T04:47:23;7.83;;;7.17;;
53040;SDS011;39326;42.650;23.248;2023-04-24T04:49:49;7.90;;;7.10;;
53040;SDS011;39326;42.650;23.248;2023-04-24T04:52:16;9.60;;;7.90;;
53040;SDS011;39326;42.650;23.248;2023-04-24T04:54:42;8.33;;;7.63;;
53040;SDS011;39326;42.650;23.248;2023-04-24T04:57:08;7.83;;;7.10;;
53040;SDS011;39326;42.650;23.248;2023-04-24T04:59:34;8.90;;;7.47;;
53040;SDS011;39326;42.650;23.248;2023-04-24T05:01:59;10.70;;;8.10;;
53040;SDS011;39326;42.650;23.248;2023-04-24T05:04:25;8.73;;;7.73;;
53040;SDS011;39326;42.650;23.248;2023-04-24T05:06:51;8.07;;;7.33;;
53040;SDS011;39326;42.650;23.248;2023-04-24T05:09:16;8.87;;;7.70;;
53040;SDS011;39326;42.650;23.248;2023-04-24T05:11:42;8.00;;;7.30;;
53040;SDS011;39326;42.650;23.248;2023-04-24T05:14:07;7.97;;;7.17;;
53040;SDS011;39326;42.650;23.248;2023-04-24T05:16:33;8.40;;;7.60;;
53040;SDS011;39326;42.650;23.248;2023-04-24T05:18:58;9.17;;;8.30;;
53040;SDS011;39326;42.650;23.248;2023-04-24T05:21:23;10.07;;;9.10;;
53040;SDS011;39326;42.650;23.248;2023-04-24T05:23:50;9.00;;;8.10;;
53040;SDS011;39326;42.650;23.248;2023-04-24T05:26:15;9.27;;;8.47;;
53040;SDS011;39326;42.650;23.248;2023-04-24T05:28:41;9.57;;;8.67;;
53040;SDS011;39326;42.650;23.248;2023-04-24T05:31:06;9.53;;;8.50;;
53040;SDS011;39326;42.650;23.248;2023-04-24T05:33:31;9.70;;;8.80;;
53040;SDS011;39326;42.650;23.248;2023-04-24T05:35:57;11.80;;;8.50;;
53040;SDS011;39326;42.650;23.248;2023-04-24T05:38:22;10.03;;;8.60;;
53040;SDS011;39326;42.650;23.248;2023-04-24T05:40:48;10.27;;;9.27;;
53040;SDS011;39326;42.650;23.248;2023-04-24T05:43:13;10.13;;;8.87;;
53040;SDS011;39326;42.650;23.248;2023-04-24T05:45:39;10.47;;;9.17;;
53040;SDS011;39326;42.650;23.248;2023-04-24T05:48:04;10.97;;;9.80;;
53040;SDS011;39326;42.650;23.248;2023-04-24T05:50:30;10.93;;;10.03;;
53040;SDS011;39326;42.650;23.248;2023-04-24T05:52:56;13.00;;;10.10;;
53040;SDS011;39326;42.650;23.248;2023-04-24T05:55:24;11.17;;;10.07;;
53040;SDS011;39326;42.650;23.248;2023-04-24T05:57:50;11.70;;;10.47;;
53040;SDS011;39326;42.650;23.248;2023-04-24T06:00:16;11.47;;;10.43;;
53040;SDS011;39326;42.650;23.248;2023-04-24T06:02:43;12.07;;;9.73;;
53040;SDS011;39326;42.650;23.248;2023-04-24T06:05:09;10.43;;;9.37;;
53040;SDS011;39326;42.650;23.248;2023-04-24T06:07:34;11.67;;;10.60;;
53040;SDS011;39326;42.650;23.248;2023-04-24T06:10:00;11.93;;;10.83;;
53040;SDS011;39326;42.650;23.248;2023-04-24T06:12:26;11.73;;;9.93;;
53040;SDS011;39326;42.650;23.248;2023-04-24T06:14:51;11.70;;;9.93;;
53040;SDS011;39326;42.650;23.248;2023-04-24T06:17:16;10.07;;;9.07;;
53040;SDS011;39326;42.650;23.248;2023-04-24T06:19:43;15.20;;;9.83;;
53040;SDS011;39326;42.650;23.248;2023-04-24T06:22:08;10.07;;;8.00;;
53040;SDS011;39326;42.650;23.248;2023-04-24T06:24:34;8.17;;;6.73;;
53040;SDS011;39326;42.650;23.248;2023-04-24T06:27:00;8.53;;;7.63;;
53040;SDS011;39326;42.650;23.248;2023-04-24T06:29:26;10.70;;;8.03;;
53040;SDS011;39326;42.650;23.248;2023-04-24T06:31:52;8.77;;;7.57;;
53040;SDS011;39326;42.650;23.248;2023-04-24T06:34:17;8.93;;;7.77;;
53040;SDS011;39326;42.650;23.248;2023-04-24T06:36:42;8.07;;;7.20;;
53040;SDS011;39326;42.650;23.248;2023-04-24T06:39:08;8.77;;;7.97;;
53040;SDS011;39326;42.650;23.248;2023-04-24T06:41:34;8.80;;;8.00;;
53040;SDS011;39326;42.650;23.248;2023-04-24T06:44:00;10.40;;;8.63;;
53040;SDS011;39326;42.650;23.248;2023-04-24T06:46:25;9.13;;;8.07;;
53040;SDS011;39326;42.650;23.248;2023-04-24T06:48:53;9.27;;;7.67;;
53040;SDS011;39326;42.650;23.248;2023-04-24T06:51:22;10.90;;;8.63;;
53040;SDS011;39326;42.650;23.248;2023-04-24T06:53:48;10.73;;;8.67;;
53040;SDS011;39326;42.650;23.248;2023-04-24T06:56:14;9.73;;;8.93;;
53040;SDS011;39326;42.650;23.248;2023-04-24T06:58:40;9.40;;;8.60;;
53040;SDS011;39326;42.650;23.248;2023-04-24T07:01:05;10.47;;;8.73;;
53040;SDS011;39326;42.650;23.248;2023-04-24T07:03:31;9.17;;;8.30;;
53040;SDS011;39326;42.650;23.248;2023-04-24T07:05:56;10.57;;;8.50;;
53040;SDS011;39326;42.650;23.248;2023-04-24T07:08:22;10.03;;;8.63;;
53040;SDS011;39326;42.650;23.248;2023-04-24T07:10:49;9.57;;;8.67;;
53040;SDS011;39326;42.650;23.248;2023-04-24T07:13:15;8.77;;;8.00;;
53040;SDS011;39326;42.650;23.248;2023-04-24T07:15:41;7.60;;;6.90;;
53040;SDS011;39326;42.650;23.248;2023-04-24T07:18:06;7.63;;;6.93;;
53040;SDS011;39326;42.650;23.248;2023-04-24T07:20:32;8.20;;;7.40;;
53040;SDS011;39326;42.650;23.248;2023-04-24T07:22:58;8.00;;;7.23;;
53040;SDS011;39326;42.650;23.248;2023-04-24T07:25:23;7.65;;;6.95;;
53040;SDS011;39326;42.650;23.248;2023-04-24T07:27:49;7.43;;;6.73;;
53040;SDS011;39326;42.650;23.248;2023-04-24T07:30:14;7.72;;;7.03;;
53040;SDS011;39326;42.650;23.248;2023-04-24T07:32:40;9.90;;;7.20;;
53040;SDS011;39326;42.650;23.248;2023-04-24T07:35:05;8.00;;;7.20;;
53040;SDS011;39326;42.650;23.248;2023-04-24T07:37:31;7.57;;;6.97;;
53040;SDS011;39326;42.650;23.248;2023-04-24T07:39:56;7.50;;;6.90;;
53040;SDS011;39326;42.650;23.248;2023-04-24T07:42:22;8.50;;;7.40;;
53040;SDS011;39326;42.650;23.248;2023-04-24T07:44:47;7.22;;;6.53;;
53040;SDS011;39326;42.650;23.248;2023-04-24T07:47:13;7.47;;;6.78;;
53040;SDS011;39326;42.650;23.248;2023-04-24T07:49:41;7.40;;;6.70;;
53040;SDS011;39326;42.650;23.248;2023-04-24T07:52:07;9.43;;;7.00;;
53040;SDS011;39326;42.650;23.248;2023-04-24T07:54:33;7.90;;;6.70;;
53040;SDS011;39326;42.650;23.248;2023-04-24T07:56:58;7.05;;;6.35;;
53040;SDS011;39326;42.650;23.248;2023-04-24T07:59:25;7.78;;;7.07;;
53040;SDS011;39326;42.650;23.248;2023-04-24T08:01:50;9.18;;;6.32;;
53040;SDS011;39326;42.650;23.248;2023-04-24T08:04:16;7.70;;;6.93;;
53040;SDS011;39326;42.650;23.248;2023-04-24T08:06:42;7.65;;;6.95;;
53040;SDS011;39326;42.650;23.248;2023-04-24T08:09:08;11.52;;;6.22;;
53040;SDS011;39326;42.650;23.248;2023-04-24T08:11:34;7.22;;;6.53;;
53040;SDS011;39326;42.650;23.248;2023-04-24T08:13:59;7.35;;;6.65;;
53040;SDS011;39326;42.650;23.248;2023-04-24T08:16:24;6.82;;;6.22;;
53040;SDS011;39326;42.650;23.248;2023-04-24T08:18:50;7.05;;;6.55;;
53040;SDS011;39326;42.650;23.248;2023-04-24T08:21:16;7.63;;;6.93;;
53040;SDS011;39326;42.650;23.248;2023-04-24T08:23:43;7.40;;;6.55;;
53040;SDS011;39326;42.650;23.248;2023-04-24T08:26:09;10.50;;;6.95;;
53040;SDS011;39326;42.650;23.248;2023-04-24T08:28:36;9.15;;;7.43;;
53040;SDS011;39326;42.650;23.248;2023-04-24T08:31:01;7.40;;;6.68;;
53040;SDS011;39326;42.650;23.248;2023-04-24T08:33:27;6.93;;;6.15;;
53040;SDS011;39326;42.650;23.248;2023-04-24T08:35:57;8.32;;;7.38;;
53040;SDS011;39326;42.650;23.248;2023-04-24T08:38:25;7.72;;;7.13;;
53040;SDS011;39326;42.650;23.248;2023-04-24T08:40:50;8.07;;;7.28;;
53040;SDS011;39326;42.650;23.248;2023-04-24T08:43:16;8.18;;;7.47;;
53040;SDS011;39326;42.650;23.248;2023-04-24T08:45:42;8.00;;;7.07;;
53040;SDS011;39326;42.650;23.248;2023-04-24T08:48:07;11.80;;;7.70;;
53040;SDS011;39326;42.650;23.248;2023-04-24T08:50:34;9.73;;;7.28;;
53040;SDS011;39326;42.650;23.248;2023-04-24T08:53:00;7.40;;;6.82;;
53040;SDS011;39326;42.650;23.248;2023-04-24T08:55:26;7.50;;;6.80;;
53040;SDS011;39326;42.650;23.248;2023-04-24T08:57:55;7.95;;;7.25;;
53040;SDS011;39326;42.650;23.248;2023-04-24T09:00:21;7.85;;;6.65;;
53040;SDS011;39326;42.650;23.248;2023-04-24T09:02:48;7.55;;;6.82;;
53040;SDS011;39326;42.650;23.248;2023-04-24T09:05:16;8.98;;;6.97;;
53040;SDS011;39326;42.650;23.248;2023-04-24T09:07:44;8.02;;;7.13;;
53040;SDS011;39326;42.650;23.248;2023-04-24T09:10:14;11.90;;;8.43;;
53040;SDS011;39326;42.650;23.248;2023-04-24T09:12:40;8.48;;;6.82;;
53040;SDS011;39326;42.650;23.248;2023-04-24T09:15:06;8.23;;;6.93;;
53040;SDS011;39326;42.650;23.248;2023-04-24T09:17:33;9.77;;;6.80;;
53040;SDS011;39326;42.650;23.248;2023-04-24T09:19:59;7.03;;;6.35;;
53040;SDS011;39326;42.650;23.248;2023-04-24T09:22:24;8.07;;;6.55;;
53040;SDS011;39326;42.650;23.248;2023-04-24T09:24:59;7.25;;;6.53;;
53040;SDS011;39326;42.650;23.248;2023-04-24T09:27:28;6.78;;;5.95;;
53040;SDS011;39326;42.650;23.248;2023-04-24T09:29:56;7.43;;;6.43;;
53040;SDS011;39326;42.650;23.248;2023-04-24T09:32:23;7.00;;;6.30;;
53040;SDS011;39326;42.650;23.248;2023-04-24T09:35:06;9.65;;;6.68;;
53040;SDS011;39326;42.650;23.248;2023-04-24T09:37:35;6.75;;;6.03;;
53040;SDS011;39326;42.650;23.248;2023-04-24T09:40:12;10.68;;;7.18;;
53040;SDS011;39326;42.650;23.248;2023-04-24T09:42:41;7.45;;;6.68;;
53040;SDS011;39326;42.650;23.248;2023-04-24T09:45:10;7.28;;;6.60;;
53040;SDS011;39326;42.650;23.248;2023-04-24T09:47:39;6.10;;;5.50;;
53040;SDS011;39326;42.650;23.248;2023-04-24T09:50:12;6.47;;;5.65;;
53040;SDS011;39326;42.650;23.248;2023-04-24T09:52:40;10.00;;;6.70;;
53040;SDS011;39326;42.650;23.248;2023-04-24T09:55:10;9.02;;;6.60;;
53040;SDS011;39326;42.650;23.248;2023-04-24T10:00:36;7.03;;;6.25;;
53040;SDS011;39326;42.650;23.248;2023-04-24T10:03:02;6.35;;;5.75;;
53040;SDS011;39326;42.650;23.248;2023-04-24T10:08:03;10.52;;;7.07;;
53040;SDS011;39326;42.650;23.248;2023-04-24T10:10:33;7.93;;;5.85;;
53040;SDS011;39326;42.650;23.248;2023-04-24T10:13:03;4.47;;;4.13;;
53040;SDS011;39326;42.650;23.248;2023-04-24T10:15:29;4.93;;;3.15;;
53040;SDS011;39326;42.650;23.248;2023-04-24T10:17:55;5.22;;;3.33;;
53040;SDS011;39326;42.650;23.248;2023-04-24T10:20:24;3.78;;;3.47;;
53040;SDS011;39326;42.650;23.248;2023-04-24T10:22:51;4.30;;;2.95;;
53040;SDS011;39326;42.650;23.248;2023-04-24T10:25:19;3.67;;;3.33;;
53040;SDS011;39326;42.650;23.248;2023-04-24T10:27:45;3.83;;;3.50;;
53040;SDS011;39326;42.650;23.248;2023-04-24T10:30:12;3.67;;;3.22;;
53040;SDS011;39326;42.650;23.248;2023-04-24T10:32:38;8.68;;;3.65;;
53040;SDS011;39326;42.650;23.248;2023-04-24T10:35:03;3.55;;;3.25;;
53040;SDS011;39326;42.650;23.248;2023-04-24T10:37:34;4.70;;;3.65;;
53040;SDS011;39326;42.650;23.248;2023-04-24T10:40:02;6.72;;;3.50;;
53040;SDS011;39326;42.650;23.248;2023-04-24T10:42:28;3.97;;;2.92;;
53040;SDS011;39326;42.650;23.248;2023-04-24T10:44:54;3.83;;;3.50;;
53040;SDS011;39326;42.650;23.248;2023-04-24T10:47:20;3.03;;;2.83;;
53040;SDS011;39326;42.650;23.248;2023-04-24T10:49:46;4.78;;;3.45;;
53040;SDS011;39326;42.650;23.248;2023-04-24T10:52:16;5.45;;;3.58;;
53040;SDS011;39326;42.650;23.248;2023-04-24T10:54:42;3.33;;;2.97;;
53040;SDS011;39326;42.650;23.248;2023-04-24T10:59:48;4.28;;;3.22;;
53040;SDS011;39326;42.650;23.248;2023-04-24T11:02:18;4.45;;;4.07;;
53040;SDS011;39326;42.650;23.248;2023-04-24T11:05:02;3.97;;;3.67;;
53040;SDS011;39326;42.650;23.248;2023-04-24T11:07:29;4.20;;;3.33;;
53040;SDS011;39326;42.650;23.248;2023-04-24T11:09:58;3.72;;;3.40;;
53040;SDS011;39326;42.650;23.248;2023-04-24T11:12:25;4.70;;;3.90;;
53040;SDS011;39326;42.650;23.248;2023-04-24T11:17:30;3.75;;;3.45;;
53040;SDS011;39326;42.650;23.248;2023-04-24T11:20:04;4.68;;;3.60;;
53040;SDS011;39326;42.650;23.248;2023-04-24T11:22:38;3.72;;;3.40;;
53040;SDS011;39326;42.650;23.248;2023-04-24T11:25:07;3.70;;;2.75;;
53040;SDS011;39326;42.650;23.248;2023-04-24T11:30:05;4.20;;;3.10;;
53040;SDS011;39326;42.650;23.248;2023-04-24T11:35:17;5.15;;;3.72;;
53040;SDS011;39326;42.650;23.248;2023-04-24T11:37:51;19.65;;;5.15;;
53040;SDS011;39326;42.650;23.248;2023-04-24T11:40:19;5.68;;;5.10;;
53040;SDS011;39326;42.650;23.248;2023-04-24T11:42:46;7.20;;;5.45;;
53040;SDS011;39326;42.650;23.248;2023-04-24T11:47:48;5.28;;;4.88;;
53040;SDS011;39326;42.650;23.248;2023-04-24T11:50:15;5.20;;;4.80;;
53040;SDS011;39326;42.650;23.248;2023-04-24T11:52:43;4.70;;;4.32;;
53040;SDS011;39326;42.650;23.248;2023-04-24T11:57:40;3.90;;;3.70;;
53040;SDS011;39326;42.650;23.248;2023-04-24T12:00:14;4.10;;;3.80;;
53040;SDS011;39326;42.650;23.248;2023-04-24T12:02:41;4.72;;;4.40;;
53040;SDS011;39326;42.650;23.248;2023-04-24T12:05:06;3.97;;;3.70;;
53040;SDS011;39326;42.650;23.248;2023-04-24T12:07:36;4.88;;;4.47;;
53040;SDS011;39326;42.650;23.248;2023-04-24T12:10:07;3.80;;;3.20;;
53040;SDS011;39326;42.650;23.248;2023-04-24T12:12:34;3.40;;;3.05;;
53040;SDS011;39326;42.650;23.248;2023-04-24T12:15:00;3.67;;;3.38;;
53040;SDS011;39326;42.650;23.248;2023-04-24T12:17:30;3.17;;;2.95;;
53040;SDS011;39326;42.650;23.248;2023-04-24T12:20:00;4.22;;;3.92;;
53040;SDS011;39326;42.650;23.248;2023-04-24T12:22:43;4.05;;;3.75;;
53040;SDS011;39326;42.650;23.248;2023-04-24T12:25:11;3.83;;;3.53;;
53040;SDS011;39326;42.650;23.248;2023-04-24T12:27:37;3.45;;;3.25;;
53040;SDS011;39326;42.650;23.248;2023-04-24T12:30:04;3.97;;;3.70;;
53040;SDS011;39326;42.650;23.248;2023-04-24T12:32:30;3.53;;;3.10;;
53040;SDS011;39326;42.650;23.248;2023-04-24T12:34:57;3.67;;;3.42;;
53040;SDS011;39326;42.650;23.248;2023-04-24T12:37:26;4.25;;;3.63;;
53040;SDS011;39326;42.650;23.248;2023-04-24T12:39:58;4.00;;;3.70;;
53040;SDS011;39326;42.650;23.248;2023-04-24T12:42:27;4.63;;;3.60;;
53040;SDS011;39326;42.650;23.248;2023-04-24T12:44:56;4.80;;;4.15;;
53040;SDS011;39326;42.650;23.248;2023-04-24T12:47:24;4.47;;;4.07;;
53040;SDS011;39326;42.650;23.248;2023-04-24T12:49:49;6.65;;;4.35;;
53040;SDS011;39326;42.650;23.248;2023-04-24T12:52:17;4.15;;;3.85;;
53040;SDS011;39326;42.650;23.248;2023-04-24T12:54:46;4.07;;;3.70;;
53040;SDS011;39326;42.650;23.248;2023-04-24T12:57:12;4.95;;;3.78;;
53040;SDS011;39326;42.650;23.248;2023-04-24T12:59:37;5.63;;;3.95;;
53040;SDS011;39326;42.650;23.248;2023-04-24T13:02:04;4.32;;;3.95;;
53040;SDS011;39326;42.650;23.248;2023-04-24T13:04:30;4.43;;;3.90;;
53040;SDS011;39326;42.650;23.248;2023-04-24T13:06:55;3.60;;;3.30;;
53040;SDS011;39326;42.650;23.248;2023-04-24T13:09:21;5.13;;;3.17;;
53040;SDS011;39326;42.650;23.248;2023-04-24T13:11:46;5.22;;;3.50;;
53040;SDS011;39326;42.650;23.248;2023-04-24T13:14:12;4.05;;;3.70;;
53040;SDS011;39326;42.650;23.248;2023-04-24T13:16:37;4.47;;;4.07;;
53040;SDS011;39326;42.650;23.248;2023-04-24T13:19:03;4.07;;;3.78;;
53040;SDS011;39326;42.650;23.248;2023-04-24T13:21:29;4.85;;;4.38;;
53040;SDS011;39326;42.650;23.248;2023-04-24T13:23:55;5.32;;;3.80;;
53040;SDS011;39326;42.650;23.248;2023-04-24T13:26:21;4.70;;;3.92;;
53040;SDS011;39326;42.650;23.248;2023-04-24T13:28:46;5.93;;;4.28;;
53040;SDS011;39326;42.650;23.248;2023-04-24T13:31:12;4.05;;;3.65;;
53040;SDS011;39326;42.650;23.248;2023-04-24T13:33:38;4.38;;;3.90;;
53040;SDS011;39326;42.650;23.248;2023-04-24T13:36:04;3.67;;;3.35;;
53040;SDS011;39326;42.650;23.248;2023-04-24T13:38:29;3.80;;;3.40;;
53040;SDS011;39326;42.650;23.248;2023-04-24T13:40:55;5.00;;;3.47;;
53040;SDS011;39326;42.650;23.248;2023-04-24T13:43:20;4.32;;;3.40;;
53040;SDS011;39326;42.650;23.248;2023-04-24T13:45:45;4.72;;;3.58;;
53040;SDS011;39326;42.650;23.248;2023-04-24T13:48:11;3.88;;;3.58;;
53040;SDS011;39326;42.650;23.248;2023-04-24T13:50:36;3.85;;;3.47;;
53040;SDS011;39326;42.650;23.248;2023-04-24T13:53:02;3.83;;;3.50;;
53040;SDS011;39326;42.650;23.248;2023-04-24T13:55:28;4.00;;;3.70;;
53040;SDS011;39326;42.650;23.248;2023-04-24T13:57:53;3.83;;;3.40;;
53040;SDS011;39326;42.650;23.248;2023-04-24T14:00:20;4.32;;;3.15;;
53040;SDS011;39326;42.650;23.248;2023-04-24T14:02:46;3.90;;;3.60;;
53040;SDS011;39326;42.650;23.248;2023-04-24T14:05:12;4.22;;;3.70;;
53040;SDS011;39326;42.650;23.248;2023-04-24T14:07:40;3.60;;;3.17;;
53040;SDS011;39326;42.650;23.248;2023-04-24T14:10:06;3.42;;;3.13;;
53040;SDS011;39326;42.650;23.248;2023-04-24T14:12:32;4.65;;;4.25;;
53040;SDS011;39326;42.650;23.248;2023-04-24T14:14:57;3.95;;;3.35;;
53040;SDS011;39326;42.650;23.248;2023-04-24T14:17:22;4.57;;;3.58;;
53040;SDS011;39326;42.650;23.248;2023-04-24T14:19:48;4.25;;;3.10;;
53040;SDS011;39326;42.650;23.248;2023-04-24T14:22:13;4.93;;;3.70;;
53040;SDS011;39326;42.650;23.248;2023-04-24T14:24:39;3.30;;;3.08;;
53040;SDS011;39326;42.650;23.248;2023-04-24T14:27:04;3.40;;;3.20;;
53040;SDS011;39326;42.650;23.248;2023-04-24T14:29:30;6.03;;;3.45;;
53040;SDS011;39326;42.650;23.248;2023-04-24T14:31:55;3.92;;;3.17;;
53040;SDS011;39326;42.650;23.248;2023-04-24T14:34:21;3.15;;;2.85;;
53040;SDS011;39326;42.650;23.248;2023-04-24T14:36:46;3.75;;;3.03;;
53040;SDS011;39326;42.650;23.248;2023-04-24T14:39:11;4.15;;;3.67;;
53040;SDS011;39326;42.650;23.248;2023-04-24T14:41:37;3.90;;;3.42;;
53040;SDS011;39326;42.650;23.248;2023-04-24T14:44:04;3.58;;;3.08;;
53040;SDS011;39326;42.650;23.248;2023-04-24T14:46:30;3.85;;;3.13;;